Jakarta/Soekarno-Hatta, Indonesia
Current Conditions -  °F | °C
As of 3:30 AM on Saturday 01 Nov 2014 (Local Time) from WIII Reporting Station
Few Clouds Few Clouds  
Wind Chill: 79°   Ceiling: Unl
Heat Index: 82°   Visibility: 4mi
Dew Point: 73°   Wind: 7mph
Humidity: 83%   Direction: 180°S
Pressure: 29.77"   Gusts: NA
Location:  6.13°S, 106.66°E
Report Text: WIII 312030Z 18006KT 7000 FEW022 26/23 Q1008 NOSIG
Loading
Personal Weather Stations






























Interactive Weather Map
Tropical Storm Tracking
New forecast layout! Learn more

10-Day Weather Forecast

Advertisements
Track Severe Weather on mobile